Abbotsford, Wisconsin
Current Conditions -  °F | °C
As of 5:15 AM on Monday 22 Dec 2014 (Local Time) from KMDZ Reporting Station
Haze Haze  
Wind Chill: 23°   Ceiling: 300
Heat Index: 32°   Visibility: 2.5mi
Dew Point: 31°   Wind: 12mph
Humidity: 96%   Direction: 160°SSE
Pressure: 29.79"   Gusts: 16mph
Location:  44.95°N, 90.32°W
Report Text: KMDZ 221115Z AUTO 16010G14KT 2 1/2SM BR OVC003 00/00 A2979 RMK AO2 T00001005
Loading
Personal Weather Stations






























Interactive Weather Map New forecast layout! Learn more

10-Day Weather Forecast

Advertisements
Track Severe Weather on mobile